Terminal Aerodrome Forecast
Issued by NWS

Home | Current Version | Previous Version | Text Only | Print | Product List | Glossary On
Versions: 1 2 3 4 5 6 7 8 9 10 11 12 13 14
000
FTUS45 KVEF 232320
TAFBIH
TAF
KBIH 232320Z 2400/2424 36020G30KT P6SM SCT100
     FM240400 34010KT P6SM SKC
     FM241700 33007KT P6SM FEW100=

USA.gov is the U.S. government's official web portal to all federal, state and local government web resources and services.